sensor_id;sensor_type;location;lat;lon;timestamp;temperature;humidity
44431;DHT22;30135;47.866;-4.222;2022-08-01T00:00:00;21.00;89.80
44431;DHT22;30135;47.866;-4.222;2022-08-01T00:02:28;21.00;89.90
44431;DHT22;30135;47.866;-4.222;2022-08-01T00:04:54;21.00;90.00
44431;DHT22;30135;47.866;-4.222;2022-08-01T00:07:20;21.00;90.00
44431;DHT22;30135;47.866;-4.222;2022-08-01T00:09:53;20.90;90.00
44431;DHT22;30135;47.866;-4.222;2022-08-01T00:12:19;20.90;90.00
44431;DHT22;30135;47.866;-4.222;2022-08-01T00:14:45;20.90;90.10
44431;DHT22;30135;47.866;-4.222;2022-08-01T00:17:11;20.90;90.10
44431;DHT22;30135;47.866;-4.222;2022-08-01T00:19:37;20.90;90.10
44431;DHT22;30135;47.866;-4.222;2022-08-01T00:22:03;20.90;90.10
44431;DHT22;30135;47.866;-4.222;2022-08-01T00:24:29;20.90;90.10
44431;DHT22;30135;47.866;-4.222;2022-08-01T00:26:55;20.90;90.10
44431;DHT22;30135;47.866;-4.222;2022-08-01T00:29:21;20.90;90.10
44431;DHT22;30135;47.866;-4.222;2022-08-01T00:31:47;20.90;90.10
44431;DHT22;30135;47.866;-4.222;2022-08-01T00:34:13;20.90;90.10
44431;DHT22;30135;47.866;-4.222;2022-08-01T00:36:40;20.90;90.10
44431;DHT22;30135;47.866;-4.222;2022-08-01T00:39:06;20.90;90.10
44431;DHT22;30135;47.866;-4.222;2022-08-01T00:41:32;20.90;90.10
44431;DHT22;30135;47.866;-4.222;2022-08-01T00:43:58;20.90;90.10
44431;DHT22;30135;47.866;-4.222;2022-08-01T00:46:27;20.90;90.20
44431;DHT22;30135;47.866;-4.222;2022-08-01T00:48:53;20.90;90.20
44431;DHT22;30135;47.866;-4.222;2022-08-01T00:51:21;20.90;90.20
44431;DHT22;30135;47.866;-4.222;2022-08-01T00:53:49;20.80;90.20
44431;DHT22;30135;47.866;-4.222;2022-08-01T00:56:16;20.80;90.10
44431;DHT22;30135;47.866;-4.222;2022-08-01T00:58:42;20.80;90.10
44431;DHT22;30135;47.866;-4.222;2022-08-01T01:01:09;20.80;90.10
44431;DHT22;30135;47.866;-4.222;2022-08-01T01:03:38;20.80;90.00
44431;DHT22;30135;47.866;-4.222;2022-08-01T01:09:52;20.80;89.90
44431;DHT22;30135;47.866;-4.222;2022-08-01T01:15:28;20.80;89.90
44431;DHT22;30135;47.866;-4.222;2022-08-01T01:18:29;20.80;90.00
44431;DHT22;30135;47.866;-4.222;2022-08-01T01:29:40;20.70;89.90
44431;DHT22;30135;47.866;-4.222;2022-08-01T01:32:18;20.70;90.00
44431;DHT22;30135;47.866;-4.222;2022-08-01T01:34:52;20.70;89.90
44431;DHT22;30135;47.866;-4.222;2022-08-01T01:37:23;20.70;90.00
44431;DHT22;30135;47.866;-4.222;2022-08-01T01:39:53;20.70;89.90
44431;DHT22;30135;47.866;-4.222;2022-08-01T01:42:23;20.70;89.90
44431;DHT22;30135;47.866;-4.222;2022-08-01T01:44:51;20.70;89.80
44431;DHT22;30135;47.866;-4.222;2022-08-01T01:47:21;20.70;89.30
44431;DHT22;30135;47.866;-4.222;2022-08-01T01:50:08;20.60;89.70
44431;DHT22;30135;47.866;-4.222;2022-08-01T01:52:43;20.60;89.80
44431;DHT22;30135;47.866;-4.222;2022-08-01T01:55:15;20.60;89.80
44431;DHT22;30135;47.866;-4.222;2022-08-01T01:57:45;20.60;89.60
44431;DHT22;30135;47.866;-4.222;2022-08-01T02:00:14;20.60;89.60
44431;DHT22;30135;47.866;-4.222;2022-08-01T02:02:46;20.60;89.70
44431;DHT22;30135;47.866;-4.222;2022-08-01T02:05:19;20.60;89.60
44431;DHT22;30135;47.866;-4.222;2022-08-01T02:07:49;20.60;89.60
44431;DHT22;30135;47.866;-4.222;2022-08-01T02:10:19;20.60;89.60
44431;DHT22;30135;47.866;-4.222;2022-08-01T02:12:53;20.60;89.60
44431;DHT22;30135;47.866;-4.222;2022-08-01T02:15:21;20.50;89.50
44431;DHT22;30135;47.866;-4.222;2022-08-01T02:17:49;20.50;89.60
44431;DHT22;30135;47.866;-4.222;2022-08-01T02:20:17;20.50;89.60
44431;DHT22;30135;47.866;-4.222;2022-08-01T02:22:56;20.50;89.60
44431;DHT22;30135;47.866;-4.222;2022-08-01T02:25:44;20.50;89.60
44431;DHT22;30135;47.866;-4.222;2022-08-01T02:28:20;20.50;90.10
44431;DHT22;30135;47.866;-4.222;2022-08-01T02:30:56;20.50;89.80
44431;DHT22;30135;47.866;-4.222;2022-08-01T02:33:37;20.50;89.90
44431;DHT22;30135;47.866;-4.222;2022-08-01T02:36:05;20.50;90.00
44431;DHT22;30135;47.866;-4.222;2022-08-01T02:38:35;20.50;90.00
44431;DHT22;30135;47.866;-4.222;2022-08-01T02:41:12;20.50;90.10
44431;DHT22;30135;47.866;-4.222;2022-08-01T02:43:49;20.50;90.10
44431;DHT22;30135;47.866;-4.222;2022-08-01T02:46:35;20.50;90.10
44431;DHT22;30135;47.866;-4.222;2022-08-01T02:49:07;20.50;90.20
44431;DHT22;30135;47.866;-4.222;2022-08-01T02:51:38;20.50;90.00
44431;DHT22;30135;47.866;-4.222;2022-08-01T02:54:08;20.40;90.20
44431;DHT22;30135;47.866;-4.222;2022-08-01T02:56:37;20.40;90.20
44431;DHT22;30135;47.866;-4.222;2022-08-01T02:59:13;20.40;90.20
44431;DHT22;30135;47.866;-4.222;2022-08-01T03:01:43;20.40;90.20
44431;DHT22;30135;47.866;-4.222;2022-08-01T03:04:11;20.50;90.30
44431;DHT22;30135;47.866;-4.222;2022-08-01T03:06:40;20.40;90.20
44431;DHT22;30135;47.866;-4.222;2022-08-01T03:09:08;20.50;90.30
44431;DHT22;30135;47.866;-4.222;2022-08-01T03:11:38;20.40;90.30
44431;DHT22;30135;47.866;-4.222;2022-08-01T03:14:13;20.40;90.30
44431;DHT22;30135;47.866;-4.222;2022-08-01T03:16:42;20.40;90.30
44431;DHT22;30135;47.866;-4.222;2022-08-01T03:19:13;20.50;90.30
44431;DHT22;30135;47.866;-4.222;2022-08-01T03:21:41;20.40;90.30
44431;DHT22;30135;47.866;-4.222;2022-08-01T03:24:10;20.40;90.20
44431;DHT22;30135;47.866;-4.222;2022-08-01T03:26:38;20.40;90.20
44431;DHT22;30135;47.866;-4.222;2022-08-01T03:29:14;20.40;90.20
44431;DHT22;30135;47.866;-4.222;2022-08-01T03:31:45;20.40;90.20
44431;DHT22;30135;47.866;-4.222;2022-08-01T03:34:12;20.40;90.20
44431;DHT22;30135;47.866;-4.222;2022-08-01T03:36:46;20.40;90.30
44431;DHT22;30135;47.866;-4.222;2022-08-01T03:39:16;20.40;90.30
44431;DHT22;30135;47.866;-4.222;2022-08-01T03:41:51;20.40;90.30
44431;DHT22;30135;47.866;-4.222;2022-08-01T03:44:26;20.30;90.30
44431;DHT22;30135;47.866;-4.222;2022-08-01T03:46:59;20.30;90.30
44431;DHT22;30135;47.866;-4.222;2022-08-01T03:49:33;20.30;90.30
44431;DHT22;30135;47.866;-4.222;2022-08-01T03:52:11;20.30;90.20
44431;DHT22;30135;47.866;-4.222;2022-08-01T03:54:42;20.30;90.30
44431;DHT22;30135;47.866;-4.222;2022-08-01T03:57:15;20.30;90.20
44431;DHT22;30135;47.866;-4.222;2022-08-01T03:59:45;20.30;90.20
44431;DHT22;30135;47.866;-4.222;2022-08-01T04:02:12;20.30;90.20
44431;DHT22;30135;47.866;-4.222;2022-08-01T04:04:43;20.30;90.20
44431;DHT22;30135;47.866;-4.222;2022-08-01T04:07:32;20.30;90.10
44431;DHT22;30135;47.866;-4.222;2022-08-01T04:10:08;20.20;90.00
44431;DHT22;30135;47.866;-4.222;2022-08-01T04:12:34;20.30;90.10
44431;DHT22;30135;47.866;-4.222;2022-08-01T04:15:07;20.30;90.10
44431;DHT22;30135;47.866;-4.222;2022-08-01T04:17:33;20.20;90.10
44431;DHT22;30135;47.866;-4.222;2022-08-01T04:20:01;20.20;90.00
44431;DHT22;30135;47.866;-4.222;2022-08-01T04:22:30;20.20;90.00
44431;DHT22;30135;47.866;-4.222;2022-08-01T04:24:57;20.20;90.00
44431;DHT22;30135;47.866;-4.222;2022-08-01T04:27:28;20.30;90.00
44431;DHT22;30135;47.866;-4.222;2022-08-01T04:29:57;20.20;90.00
44431;DHT22;30135;47.866;-4.222;2022-08-01T04:32:40;20.20;90.00
44431;DHT22;30135;47.866;-4.222;2022-08-01T04:35:13;20.20;90.00
44431;DHT22;30135;47.866;-4.222;2022-08-01T04:37:44;20.20;90.00
44431;DHT22;30135;47.866;-4.222;2022-08-01T04:40:12;20.20;90.00
44431;DHT22;30135;47.866;-4.222;2022-08-01T04:42:38;20.20;90.00
44431;DHT22;30135;47.866;-4.222;2022-08-01T04:45:07;20.20;90.00
44431;DHT22;30135;47.866;-4.222;2022-08-01T04:47:39;20.20;90.00
44431;DHT22;30135;47.866;-4.222;2022-08-01T04:50:09;20.20;90.10
44431;DHT22;30135;47.866;-4.222;2022-08-01T04:52:39;20.20;90.10
44431;DHT22;30135;47.866;-4.222;2022-08-01T04:55:08;20.20;90.10
44431;DHT22;30135;47.866;-4.222;2022-08-01T04:57:38;20.20;90.20
44431;DHT22;30135;47.866;-4.222;2022-08-01T05:00:07;20.20;90.20
44431;DHT22;30135;47.866;-4.222;2022-08-01T05:02:33;20.20;90.20
44431;DHT22;30135;47.866;-4.222;2022-08-01T05:04:59;20.20;90.20
44431;DHT22;30135;47.866;-4.222;2022-08-01T05:07:35;20.20;90.20
44431;DHT22;30135;47.866;-4.222;2022-08-01T05:10:05;20.20;90.10
44431;DHT22;30135;47.866;-4.222;2022-08-01T05:12:32;20.20;90.10
44431;DHT22;30135;47.866;-4.222;2022-08-01T05:14:59;20.20;90.10
44431;DHT22;30135;47.866;-4.222;2022-08-01T05:17:34;20.20;90.10
44431;DHT22;30135;47.866;-4.222;2022-08-01T05:20:03;20.20;90.10
44431;DHT22;30135;47.866;-4.222;2022-08-01T05:22:32;20.20;90.10
44431;DHT22;30135;47.866;-4.222;2022-08-01T05:24:58;20.20;90.10
44431;DHT22;30135;47.866;-4.222;2022-08-01T05:27:26;20.20;90.10
44431;DHT22;30135;47.866;-4.222;2022-08-01T05:29:55;20.20;90.10
44431;DHT22;30135;47.866;-4.222;2022-08-01T05:32:23;20.20;90.10
44431;DHT22;30135;47.866;-4.222;2022-08-01T05:34:50;20.20;90.20
44431;DHT22;30135;47.866;-4.222;2022-08-01T05:37:20;20.20;90.20
44431;DHT22;30135;47.866;-4.222;2022-08-01T05:39:48;20.20;90.20
44431;DHT22;30135;47.866;-4.222;2022-08-01T05:42:14;20.20;90.20
44431;DHT22;30135;47.866;-4.222;2022-08-01T05:44:42;20.20;90.30
44431;DHT22;30135;47.866;-4.222;2022-08-01T05:47:10;20.20;90.30
44431;DHT22;30135;47.866;-4.222;2022-08-01T05:49:39;20.20;90.30
44431;DHT22;30135;47.866;-4.222;2022-08-01T05:52:05;20.20;90.30
44431;DHT22;30135;47.866;-4.222;2022-08-01T05:54:31;20.20;90.40
44431;DHT22;30135;47.866;-4.222;2022-08-01T05:56:57;20.20;90.40
44431;DHT22;30135;47.866;-4.222;2022-08-01T05:59:27;20.20;90.40
44431;DHT22;30135;47.866;-4.222;2022-08-01T06:01:55;20.20;90.30
44431;DHT22;30135;47.866;-4.222;2022-08-01T06:04:21;20.20;90.50
44431;DHT22;30135;47.866;-4.222;2022-08-01T06:06:48;20.20;90.50
44431;DHT22;30135;47.866;-4.222;2022-08-01T06:09:14;20.20;90.60
44431;DHT22;30135;47.866;-4.222;2022-08-01T06:11:41;20.20;90.60
44431;DHT22;30135;47.866;-4.222;2022-08-01T06:14:10;20.20;90.60
44431;DHT22;30135;47.866;-4.222;2022-08-01T06:16:37;20.20;90.60
44431;DHT22;30135;47.866;-4.222;2022-08-01T06:19:10;20.20;90.60
44431;DHT22;30135;47.866;-4.222;2022-08-01T06:21:38;20.20;90.60
44431;DHT22;30135;47.866;-4.222;2022-08-01T06:24:05;20.20;90.70
44431;DHT22;30135;47.866;-4.222;2022-08-01T06:26:35;20.20;90.80
44431;DHT22;30135;47.866;-4.222;2022-08-01T06:29:03;20.20;90.80
44431;DHT22;30135;47.866;-4.222;2022-08-01T06:31:32;20.20;90.80
44431;DHT22;30135;47.866;-4.222;2022-08-01T06:34:00;20.20;90.80
44431;DHT22;30135;47.866;-4.222;2022-08-01T06:36:26;20.20;90.90
44431;DHT22;30135;47.866;-4.222;2022-08-01T06:38:53;20.20;90.90
44431;DHT22;30135;47.866;-4.222;2022-08-01T06:41:19;20.20;90.90
44431;DHT22;30135;47.866;-4.222;2022-08-01T06:43:45;20.20;91.00
44431;DHT22;30135;47.866;-4.222;2022-08-01T06:46:13;20.20;91.00
44431;DHT22;30135;47.866;-4.222;2022-08-01T06:48:41;20.20;91.00
44431;DHT22;30135;47.866;-4.222;2022-08-01T06:51:08;20.20;91.10
44431;DHT22;30135;47.866;-4.222;2022-08-01T06:53:36;20.20;91.00
44431;DHT22;30135;47.866;-4.222;2022-08-01T06:56:04;20.20;91.00
44431;DHT22;30135;47.866;-4.222;2022-08-01T06:58:35;20.20;90.90
44431;DHT22;30135;47.866;-4.222;2022-08-01T07:01:14;20.20;90.90
44431;DHT22;30135;47.866;-4.222;2022-08-01T07:03:48;20.20;90.80
44431;DHT22;30135;47.866;-4.222;2022-08-01T07:06:16;20.20;90.90
44431;DHT22;30135;47.866;-4.222;2022-08-01T07:08:43;20.30;90.90
44431;DHT22;30135;47.866;-4.222;2022-08-01T07:11:09;20.30;90.90
44431;DHT22;30135;47.866;-4.222;2022-08-01T07:13:41;20.30;90.80
44431;DHT22;30135;47.866;-4.222;2022-08-01T07:16:08;20.30;90.80
44431;DHT22;30135;47.866;-4.222;2022-08-01T07:18:36;20.30;90.80
44431;DHT22;30135;47.866;-4.222;2022-08-01T07:21:12;20.30;90.80
44431;DHT22;30135;47.866;-4.222;2022-08-01T07:23:39;20.30;90.80
44431;DHT22;30135;47.866;-4.222;2022-08-01T07:26:07;20.30;90.80
44431;DHT22;30135;47.866;-4.222;2022-08-01T07:28:35;20.30;90.80
44431;DHT22;30135;47.866;-4.222;2022-08-01T07:31:02;20.30;90.80
44431;DHT22;30135;47.866;-4.222;2022-08-01T07:33:29;20.40;90.80
44431;DHT22;30135;47.866;-4.222;2022-08-01T07:35:56;20.40;90.80
44431;DHT22;30135;47.866;-4.222;2022-08-01T07:38:24;20.40;90.70
44431;DHT22;30135;47.866;-4.222;2022-08-01T07:40:51;20.40;90.60
44431;DHT22;30135;47.866;-4.222;2022-08-01T07:43:21;20.40;90.60
44431;DHT22;30135;47.866;-4.222;2022-08-01T07:45:49;20.40;90.50
44431;DHT22;30135;47.866;-4.222;2022-08-01T07:48:17;20.50;90.40
44431;DHT22;30135;47.866;-4.222;2022-08-01T07:50:46;20.50;90.30
44431;DHT22;30135;47.866;-4.222;2022-08-01T07:53:12;20.50;90.20
44431;DHT22;30135;47.866;-4.222;2022-08-01T07:55:39;20.50;90.10
44431;DHT22;30135;47.866;-4.222;2022-08-01T07:58:05;20.50;90.10
44431;DHT22;30135;47.866;-4.222;2022-08-01T08:00:32;20.50;90.00
44431;DHT22;30135;47.866;-4.222;2022-08-01T08:02:59;20.50;90.00
44431;DHT22;30135;47.866;-4.222;2022-08-01T08:05:27;20.50;90.00
44431;DHT22;30135;47.866;-4.222;2022-08-01T08:07:55;20.50;90.00
44431;DHT22;30135;47.866;-4.222;2022-08-01T08:10:21;20.50;90.00
44431;DHT22;30135;47.866;-4.222;2022-08-01T08:12:47;20.50;89.90
44431;DHT22;30135;47.866;-4.222;2022-08-01T08:15:16;20.60;89.90
44431;DHT22;30135;47.866;-4.222;2022-08-01T08:17:43;20.60;89.80
44431;DHT22;30135;47.866;-4.222;2022-08-01T08:20:09;20.60;89.60
44431;DHT22;30135;47.866;-4.222;2022-08-01T08:22:42;20.60;89.50
44431;DHT22;30135;47.866;-4.222;2022-08-01T08:25:08;20.60;89.40
44431;DHT22;30135;47.866;-4.222;2022-08-01T08:27:36;20.60;89.20
44431;DHT22;30135;47.866;-4.222;2022-08-01T08:30:04;20.70;89.20
44431;DHT22;30135;47.866;-4.222;2022-08-01T08:32:33;20.70;89.10
44431;DHT22;30135;47.866;-4.222;2022-08-01T08:35:01;20.70;89.00
44431;DHT22;30135;47.866;-4.222;2022-08-01T08:37:30;20.70;89.00
44431;DHT22;30135;47.866;-4.222;2022-08-01T08:39:56;20.70;88.30
44431;DHT22;30135;47.866;-4.222;2022-08-01T08:42:23;20.70;88.90
44431;DHT22;30135;47.866;-4.222;2022-08-01T08:44:50;20.70;88.90
44431;DHT22;30135;47.866;-4.222;2022-08-01T08:47:22;20.70;88.80
44431;DHT22;30135;47.866;-4.222;2022-08-01T08:49:51;20.70;88.80
44431;DHT22;30135;47.866;-4.222;2022-08-01T08:52:21;20.70;88.60
44431;DHT22;30135;47.866;-4.222;2022-08-01T08:54:50;20.80;88.60
44431;DHT22;30135;47.866;-4.222;2022-08-01T08:57:20;20.80;88.60
44431;DHT22;30135;47.866;-4.222;2022-08-01T08:59:49;20.80;88.50
44431;DHT22;30135;47.866;-4.222;2022-08-01T09:02:20;20.80;88.30
44431;DHT22;30135;47.866;-4.222;2022-08-01T09:04:49;20.80;88.10
44431;DHT22;30135;47.866;-4.222;2022-08-01T09:07:16;20.80;88.00
44431;DHT22;30135;47.866;-4.222;2022-08-01T09:09:48;20.80;87.90
44431;DHT22;30135;47.866;-4.222;2022-08-01T09:12:17;20.80;87.90
44431;DHT22;30135;47.866;-4.222;2022-08-01T09:14:46;20.80;87.80
44431;DHT22;30135;47.866;-4.222;2022-08-01T09:17:13;20.90;87.60
44431;DHT22;30135;47.866;-4.222;2022-08-01T09:19:43;20.80;87.40
44431;DHT22;30135;47.866;-4.222;2022-08-01T09:22:15;20.90;87.30
44431;DHT22;30135;47.866;-4.222;2022-08-01T09:27:30;20.90;86.90
44431;DHT22;30135;47.866;-4.222;2022-08-01T09:30:12;20.90;87.00
44431;DHT22;30135;47.866;-4.222;2022-08-01T09:33:00;21.00;86.60
44431;DHT22;30135;47.866;-4.222;2022-08-01T09:35:35;21.00;86.00
44431;DHT22;30135;47.866;-4.222;2022-08-01T09:38:23;21.00;86.90
44431;DHT22;30135;47.866;-4.222;2022-08-01T09:41:02;21.10;85.40
44431;DHT22;30135;47.866;-4.222;2022-08-01T09:43:34;21.10;85.20
44431;DHT22;30135;47.866;-4.222;2022-08-01T09:46:11;21.10;85.20
44431;DHT22;30135;47.866;-4.222;2022-08-01T09:48:38;21.20;84.80
44431;DHT22;30135;47.866;-4.222;2022-08-01T09:51:07;21.20;84.80
44431;DHT22;30135;47.866;-4.222;2022-08-01T09:53:48;21.20;84.60
44431;DHT22;30135;47.866;-4.222;2022-08-01T09:56:15;21.20;84.00
44431;DHT22;30135;47.866;-4.222;2022-08-01T09:58:53;21.30;84.40
44431;DHT22;30135;47.866;-4.222;2022-08-01T10:01:23;21.30;83.90
44431;DHT22;30135;47.866;-4.222;2022-08-01T10:06:37;21.30;83.40
44431;DHT22;30135;47.866;-4.222;2022-08-01T10:09:06;21.30;83.50
44431;DHT22;30135;47.866;-4.222;2022-08-01T10:11:33;21.40;83.40
44431;DHT22;30135;47.866;-4.222;2022-08-01T10:14:03;21.40;83.10
44431;DHT22;30135;47.866;-4.222;2022-08-01T10:16:32;21.50;82.90
44431;DHT22;30135;47.866;-4.222;2022-08-01T10:19:04;21.50;82.90
44431;DHT22;30135;47.866;-4.222;2022-08-01T10:21:36;21.50;82.90
44431;DHT22;30135;47.866;-4.222;2022-08-01T10:24:05;21.60;83.00
44431;DHT22;30135;47.866;-4.222;2022-08-01T10:26:41;21.60;82.70
44431;DHT22;30135;47.866;-4.222;2022-08-01T10:29:09;21.70;82.40
44431;DHT22;30135;47.866;-4.222;2022-08-01T10:31:39;21.70;82.30
44431;DHT22;30135;47.866;-4.222;2022-08-01T10:34:12;21.80;82.00
44431;DHT22;30135;47.866;-4.222;2022-08-01T10:36:42;21.80;81.80
44431;DHT22;30135;47.866;-4.222;2022-08-01T10:39:13;21.80;81.60
44431;DHT22;30135;47.866;-4.222;2022-08-01T10:41:45;21.80;81.30
44431;DHT22;30135;47.866;-4.222;2022-08-01T10:44:12;21.90;81.30
44431;DHT22;30135;47.866;-4.222;2022-08-01T10:46:39;22.00;81.40
44431;DHT22;30135;47.866;-4.222;2022-08-01T10:49:14;22.00;81.00
44431;DHT22;30135;47.866;-4.222;2022-08-01T10:51:42;22.10;80.90
44431;DHT22;30135;47.866;-4.222;2022-08-01T10:54:11;22.10;80.70
44431;DHT22;30135;47.866;-4.222;2022-08-01T10:56:46;22.20;80.40
44431;DHT22;30135;47.866;-4.222;2022-08-01T10:59:20;22.20;80.00
44431;DHT22;30135;47.866;-4.222;2022-08-01T11:02:04;22.20;79.90
44431;DHT22;30135;47.866;-4.222;2022-08-01T11:04:57;22.30;79.50
44431;DHT22;30135;47.866;-4.222;2022-08-01T11:07:54;22.30;79.10
44431;DHT22;30135;47.866;-4.222;2022-08-01T11:10:40;22.30;79.00
44431;DHT22;30135;47.866;-4.222;2022-08-01T11:13:10;22.30;78.70
44431;DHT22;30135;47.866;-4.222;2022-08-01T11:15:39;22.30;79.00
44431;DHT22;30135;47.866;-4.222;2022-08-01T11:18:49;22.30;78.90
44431;DHT22;30135;47.866;-4.222;2022-08-01T11:21:17;22.40;78.60
44431;DHT22;30135;47.866;-4.222;2022-08-01T11:24:02;22.40;78.70
44431;DHT22;30135;47.866;-4.222;2022-08-01T11:26:29;22.50;78.30
44431;DHT22;30135;47.866;-4.222;2022-08-01T11:29:15;22.50;78.50
44431;DHT22;30135;47.866;-4.222;2022-08-01T11:31:43;22.50;78.00
44431;DHT22;30135;47.866;-4.222;2022-08-01T11:34:10;22.60;78.10
44431;DHT22;30135;47.866;-4.222;2022-08-01T11:36:38;22.60;77.90
44431;DHT22;30135;47.866;-4.222;2022-08-01T11:41:35;22.70;77.80
44431;DHT22;30135;47.866;-4.222;2022-08-01T11:44:15;22.80;77.70
44431;DHT22;30135;47.866;-4.222;2022-08-01T11:52:27;22.90;77.00
44431;DHT22;30135;47.866;-4.222;2022-08-01T11:55:04;23.00;76.70
44431;DHT22;30135;47.866;-4.222;2022-08-01T11:57:33;23.00;76.60
44431;DHT22;30135;47.866;-4.222;2022-08-01T12:00:16;23.00;76.30
44431;DHT22;30135;47.866;-4.222;2022-08-01T12:02:46;23.10;75.80
44431;DHT22;30135;47.866;-4.222;2022-08-01T12:05:22;23.10;75.80
44431;DHT22;30135;47.866;-4.222;2022-08-01T12:07:54;23.20;75.70
44431;DHT22;30135;47.866;-4.222;2022-08-01T12:10:24;23.20;75.40
44431;DHT22;30135;47.866;-4.222;2022-08-01T12:13:03;23.30;75.30
44431;DHT22;30135;47.866;-4.222;2022-08-01T12:15:31;23.30;75.30
44431;DHT22;30135;47.866;-4.222;2022-08-01T12:18:10;23.30;74.60
44431;DHT22;30135;47.866;-4.222;2022-08-01T12:20:43;23.30;75.00
44431;DHT22;30135;47.866;-4.222;2022-08-01T12:23:14;23.40;75.00
44431;DHT22;30135;47.866;-4.222;2022-08-01T12:25:51;23.40;74.90
44431;DHT22;30135;47.866;-4.222;2022-08-01T12:28:18;23.40;74.70
44431;DHT22;30135;47.866;-4.222;2022-08-01T12:30:52;23.40;74.60
44431;DHT22;30135;47.866;-4.222;2022-08-01T12:33:20;23.50;74.40
44431;DHT22;30135;47.866;-4.222;2022-08-01T12:35:47;23.50;74.00
44431;DHT22;30135;47.866;-4.222;2022-08-01T12:38:19;23.50;74.00
44431;DHT22;30135;47.866;-4.222;2022-08-01T12:40:52;23.60;73.90
44431;DHT22;30135;47.866;-4.222;2022-08-01T12:43:21;23.60;73.80
44431;DHT22;30135;47.866;-4.222;2022-08-01T12:45:50;23.60;73.40
44431;DHT22;30135;47.866;-4.222;2022-08-01T12:48:18;23.70;73.50
44431;DHT22;30135;47.866;-4.222;2022-08-01T12:50:48;23.70;73.30
44431;DHT22;30135;47.866;-4.222;2022-08-01T12:53:16;23.80;73.20
44431;DHT22;30135;47.866;-4.222;2022-08-01T12:55:48;23.90;73.00
44431;DHT22;30135;47.866;-4.222;2022-08-01T12:58:19;23.90;72.60
44431;DHT22;30135;47.866;-4.222;2022-08-01T13:00:49;24.00;72.30
44431;DHT22;30135;47.866;-4.222;2022-08-01T13:03:20;24.10;72.00
44431;DHT22;30135;47.866;-4.222;2022-08-01T13:05:55;24.20;71.80
44431;DHT22;30135;47.866;-4.222;2022-08-01T13:08:31;24.30;71.30
44431;DHT22;30135;47.866;-4.222;2022-08-01T13:11:06;24.40;71.10
44431;DHT22;30135;47.866;-4.222;2022-08-01T13:13:50;24.40;70.60
44431;DHT22;30135;47.866;-4.222;2022-08-01T13:16:19;24.40;70.70
44431;DHT22;30135;47.866;-4.222;2022-08-01T13:18:54;24.50;70.70
44431;DHT22;30135;47.866;-4.222;2022-08-01T13:21:29;24.60;71.20
44431;DHT22;30135;47.866;-4.222;2022-08-01T13:24:11;24.60;70.10
44431;DHT22;30135;47.866;-4.222;2022-08-01T13:29:30;24.80;69.30
44431;DHT22;30135;47.866;-4.222;2022-08-01T13:34:42;24.90;68.70
44431;DHT22;30135;47.866;-4.222;2022-08-01T13:37:09;24.90;68.50
44431;DHT22;30135;47.866;-4.222;2022-08-01T13:39:38;25.00;68.30
44431;DHT22;30135;47.866;-4.222;2022-08-01T13:42:15;25.10;68.10
44431;DHT22;30135;47.866;-4.222;2022-08-01T13:44:42;25.10;67.80
44431;DHT22;30135;47.866;-4.222;2022-08-01T13:47:12;25.20;67.60
44431;DHT22;30135;47.866;-4.222;2022-08-01T13:49:44;25.30;67.40
44431;DHT22;30135;47.866;-4.222;2022-08-01T13:52:10;25.30;67.00
44431;DHT22;30135;47.866;-4.222;2022-08-01T13:54:52;25.30;66.60
44431;DHT22;30135;47.866;-4.222;2022-08-01T13:57:31;25.40;66.10
44431;DHT22;30135;47.866;-4.222;2022-08-01T13:59:58;25.40;66.00
44431;DHT22;30135;47.866;-4.222;2022-08-01T14:02:27;25.50;65.90
44431;DHT22;30135;47.866;-4.222;2022-08-01T14:04:54;25.50;65.70
44431;DHT22;30135;47.866;-4.222;2022-08-01T14:07:21;25.50;65.50
44431;DHT22;30135;47.866;-4.222;2022-08-01T14:09:48;25.50;65.30
44431;DHT22;30135;47.866;-4.222;2022-08-01T14:12:14;25.60;65.20
44431;DHT22;30135;47.866;-4.222;2022-08-01T14:14:40;25.60;65.10
44431;DHT22;30135;47.866;-4.222;2022-08-01T14:17:12;25.60;65.10
44431;DHT22;30135;47.866;-4.222;2022-08-01T14:19:38;25.60;65.00
44431;DHT22;30135;47.866;-4.222;2022-08-01T14:22:04;25.60;65.10
44431;DHT22;30135;47.866;-4.222;2022-08-01T14:24:32;25.60;65.00
44431;DHT22;30135;47.866;-4.222;2022-08-01T14:27:00;25.70;64.90
44431;DHT22;30135;47.866;-4.222;2022-08-01T14:29:28;25.60;64.70
44431;DHT22;30135;47.866;-4.222;2022-08-01T14:31:56;25.70;64.60
44431;DHT22;30135;47.866;-4.222;2022-08-01T14:34:22;25.70;64.50
44431;DHT22;30135;47.866;-4.222;2022-08-01T14:36:48;25.70;64.40
44431;DHT22;30135;47.866;-4.222;2022-08-01T14:39:15;25.80;64.20
44431;DHT22;30135;47.866;-4.222;2022-08-01T14:41:45;25.70;64.10
44431;DHT22;30135;47.866;-4.222;2022-08-01T14:44:14;25.80;64.00
44431;DHT22;30135;47.866;-4.222;2022-08-01T14:46:43;25.70;63.80
44431;DHT22;30135;47.866;-4.222;2022-08-01T14:49:10;25.80;63.80
44431;DHT22;30135;47.866;-4.222;2022-08-01T14:51:36;25.70;63.80
44431;DHT22;30135;47.866;-4.222;2022-08-01T14:54:04;25.80;63.80
44431;DHT22;30135;47.866;-4.222;2022-08-01T14:56:35;25.70;63.70
44431;DHT22;30135;47.866;-4.222;2022-08-01T14:59:07;25.80;63.80
44431;DHT22;30135;47.866;-4.222;2022-08-01T15:01:35;25.70;63.60
44431;DHT22;30135;47.866;-4.222;2022-08-01T15:04:02;25.70;63.40
44431;DHT22;30135;47.866;-4.222;2022-08-01T15:06:28;25.70;63.50
44431;DHT22;30135;47.866;-4.222;2022-08-01T15:08:54;25.70;63.60
44431;DHT22;30135;47.866;-4.222;2022-08-01T15:11:21;25.60;63.60
44431;DHT22;30135;47.866;-4.222;2022-08-01T15:13:47;25.60;63.60
44431;DHT22;30135;47.866;-4.222;2022-08-01T15:16:33;25.60;63.50
44431;DHT22;30135;47.866;-4.222;2022-08-01T15:19:00;25.60;63.60
44431;DHT22;30135;47.866;-4.222;2022-08-01T15:21:26;25.50;63.20
44431;DHT22;30135;47.866;-4.222;2022-08-01T15:23:54;25.50;63.40
44431;DHT22;30135;47.866;-4.222;2022-08-01T15:26:22;25.50;63.40
44431;DHT22;30135;47.866;-4.222;2022-08-01T15:28:51;25.50;63.40
44431;DHT22;30135;47.866;-4.222;2022-08-01T15:31:19;25.50;63.50
44431;DHT22;30135;47.866;-4.222;2022-08-01T15:33:45;25.50;63.50
44431;DHT22;30135;47.866;-4.222;2022-08-01T15:36:12;25.50;63.40
44431;DHT22;30135;47.866;-4.222;2022-08-01T15:38:38;25.50;63.40
44431;DHT22;30135;47.866;-4.222;2022-08-01T15:41:06;25.50;63.20
44431;DHT22;30135;47.866;-4.222;2022-08-01T15:43:33;25.50;63.20
44431;DHT22;30135;47.866;-4.222;2022-08-01T15:45:59;25.50;63.20
44431;DHT22;30135;47.866;-4.222;2022-08-01T15:48:27;25.50;63.20
44431;DHT22;30135;47.866;-4.222;2022-08-01T15:50:53;25.50;63.20
44431;DHT22;30135;47.866;-4.222;2022-08-01T15:53:20;25.50;64.00
44431;DHT22;30135;47.866;-4.222;2022-08-01T15:55:48;25.50;63.40
44431;DHT22;30135;47.866;-4.222;2022-08-01T15:58:15;25.40;63.30
44431;DHT22;30135;47.866;-4.222;2022-08-01T16:00:47;25.40;63.30
44431;DHT22;30135;47.866;-4.222;2022-08-01T16:03:14;25.50;63.30
44431;DHT22;30135;47.866;-4.222;2022-08-01T16:05:40;25.40;63.50
44431;DHT22;30135;47.866;-4.222;2022-08-01T16:08:13;25.50;63.70